Time;durP1;ratioP1;P1;durP2;ratioP2;P2;SDS_P1;SDS_P2;PMS_P1;PMS_P2;Temp;Humidity;BMP_temperature;BMP_pressure;BME280_temperature;BME280_humidity;BME280_pressure;Samples;Min_cycle;Max_cycle;Signal;HPM_P1;HPM_P2
2021/11/03 01:20:37;;;;;;;16.13;6.30;;;;;;;;;;6170408;23;20212;-89
2021/11/03 01:23:46;;;;;;;17.40;6.17;;;;;;;;;;6193212;23;20217;-90
2021/11/03 01:44:51;;;;;;;17.17;7.70;;;;;;;;;;6090960;23;20170;-89
2021/11/03 01:47:59;;;;;;;17.73;7.50;;;;;;;;;;6077686;23;20234;-91
2021/11/03 01:51:05;;;;;;;13.73;6.87;;;;;;;;;;6091754;23;20175;-92
2021/11/03 01:54:15;;;;;;;11.70;5.97;;;;;;;;;;6091361;23;20226;-90
2021/11/03 02:26:49;;;;;;;7.30;4.20;;;;;;;;;;6159805;23;20200;-89
2021/11/03 02:29:54;;;;;;;6.90;4.07;;;;;;;;;;6191587;23;20167;-91
2021/11/03 02:33:07;;;;;;;7.13;3.97;;;;;;;;;;6188500;23;20538;-90
2021/11/03 02:36:13;;;;;;;7.00;3.97;;;;;;;;;;6186957;23;20171;-90
2021/11/03 02:39:20;;;;;;;9.13;4.00;;;;;;;;;;6187312;23;20212;-90
2021/11/03 02:42:28;;;;;;;5.83;3.80;;;;;;;;;;6187190;23;20180;-89
2021/11/03 02:45:35;;;;;;;7.70;3.63;;;;;;;;;;6188170;23;20175;-90
2021/11/03 02:48:42;;;;;;;6.97;4.40;;;;;;;;;;6188443;23;20168;-90
2021/11/03 02:51:47;;;;;;;6.77;4.50;;;;;;;;;;6187502;23;20168;-91
2021/11/03 02:54:54;;;;;;;9.83;4.67;;;;;;;;;;6187535;23;20183;-91
2021/11/03 02:58:01;;;;;;;7.73;5.10;;;;;;;;;;6187743;23;20215;-90
2021/11/03 03:01:11;;;;;;;8.30;4.50;;;;;;;;;;6187851;23;20160;-89
2021/11/03 03:04:18;;;;;;;6.27;4.10;;;;;;;;;;6187509;23;20221;-90
2021/11/03 03:07:26;;;;;;;8.90;4.23;;;;;;;;;;6188851;23;20171;-91
2021/11/03 03:10:32;;;;;;;7.20;4.20;;;;;;;;;;6187011;23;20183;-90
2021/11/03 03:13:38;;;;;;;6.60;3.83;;;;;;;;;;6188315;23;20199;-90
2021/11/03 03:16:44;;;;;;;9.97;3.77;;;;;;;;;;6187151;23;20165;-90
2021/11/03 03:19:50;;;;;;;6.53;4.03;;;;;;;;;;6189178;23;20172;-90
2021/11/03 03:22:56;;;;;;;6.60;4.13;;;;;;;;;;6187582;23;20248;-89
2021/11/03 03:26:05;;;;;;;7.73;4.30;;;;;;;;;;6186027;23;20164;-88
2021/11/03 03:29:13;;;;;;;6.83;3.90;;;;;;;;;;6187122;23;20183;-89
2021/11/03 03:32:22;;;;;;;5.03;3.37;;;;;;;;;;6188334;23;20197;-90
2021/11/03 03:35:27;;;;;;;8.37;3.70;;;;;;;;;;6187893;23;20172;-89
2021/11/03 03:38:33;;;;;;;6.57;3.87;;;;;;;;;;6188144;23;20172;-89
2021/11/03 03:41:40;;;;;;;5.83;3.37;;;;;;;;;;6187084;23;20180;-90
2021/11/03 03:44:49;;;;;;;4.73;3.37;;;;;;;;;;6189319;23;20221;-89
2021/11/03 03:47:55;;;;;;;6.77;3.97;;;;;;;;;;6188821;23;20229;-91
2021/11/03 03:51:01;;;;;;;7.80;3.80;;;;;;;;;;6189805;23;20168;-89
2021/11/03 03:54:07;;;;;;;6.47;3.67;;;;;;;;;;6189942;23;20203;-90
2021/11/03 03:57:13;;;;;;;7.73;3.50;;;;;;;;;;6189601;23;20175;-89
2021/11/03 04:00:21;;;;;;;11.27;4.83;;;;;;;;;;6189779;23;20219;-90
2021/11/03 04:03:30;;;;;;;9.57;4.87;;;;;;;;;;6189980;23;20175;-92
2021/11/03 04:06:35;;;;;;;8.53;4.13;;;;;;;;;;6189835;23;20227;-90
2021/11/03 04:09:43;;;;;;;7.13;3.63;;;;;;;;;;6189233;23;20172;-88
2021/11/03 04:12:48;;;;;;;8.30;4.53;;;;;;;;;;6189154;23;20164;-88
2021/11/03 04:16:40;;;;;;;13.70;4.47;;;;;;;;;;6187955;23;20176;-91
2021/11/03 04:19:48;;;;;;;6.77;3.30;;;;;;;;;;6190120;23;20172;-90
2021/11/03 04:22:54;;;;;;;6.37;3.63;;;;;;;;;;6190273;23;20175;-90
2021/11/03 04:26:00;;;;;;;6.77;3.77;;;;;;;;;;6189844;23;20172;-90
2021/11/03 04:29:09;;;;;;;6.60;3.87;;;;;;;;;;6188097;23;20235;-89
2021/11/03 04:32:15;;;;;;;8.60;4.33;;;;;;;;;;6186929;23;20191;-91
2021/11/03 04:35:22;;;;;;;11.17;4.73;;;;;;;;;;6190927;23;20168;-93
2021/11/03 04:38:28;;;;;;;14.87;4.53;;;;;;;;;;6188401;23;20172;-91
2021/11/03 04:41:34;;;;;;;15.73;5.17;;;;;;;;;;6190113;23;20196;-89
2021/11/03 04:44:40;;;;;;;13.80;5.07;;;;;;;;;;6188764;23;20191;-91
2021/11/03 04:47:47;;;;;;;8.83;4.67;;;;;;;;;;6189872;23;20210;-91
2021/11/03 04:50:54;;;;;;;9.40;4.97;;;;;;;;;;6190862;23;20171;-89
2021/11/03 04:54:01;;;;;;;14.07;5.33;;;;;;;;;;6190106;23;20200;-91
2021/11/03 04:57:07;;;;;;;9.83;4.50;;;;;;;;;;6190204;23;20155;-90
2021/11/03 05:00:19;;;;;;;8.03;3.57;;;;;;;;;;6191155;23;20483;-88
2021/11/03 05:03:26;;;;;;;7.27;3.80;;;;;;;;;;6192068;23;20198;-89
2021/11/03 05:06:37;;;;;;;10.47;4.60;;;;;;;;;;6190927;23;20151;-89
2021/11/03 05:09:44;;;;;;;12.00;5.07;;;;;;;;;;6190687;23;20201;-91
2021/11/03 05:12:50;;;;;;;14.10;5.40;;;;;;;;;;6190444;23;20502;-90
2021/11/03 05:16:01;;;;;;;9.40;4.57;;;;;;;;;;6190788;23;20208;-90
2021/11/03 05:19:07;;;;;;;9.23;4.50;;;;;;;;;;6191017;23;20168;-91
2021/11/03 05:22:25;;;;;;;11.40;5.40;;;;;;;;;;6191393;23;20202;-90
2021/11/03 05:25:32;;;;;;;14.30;6.17;;;;;;;;;;6189860;23;20184;-92
2021/11/03 05:28:39;;;;;;;15.03;6.03;;;;;;;;;;6190878;23;20189;-88
2021/11/03 05:31:47;;;;;;;11.70;6.00;;;;;;;;;;6191395;23;20217;-91
2021/11/03 05:34:53;;;;;;;13.07;6.27;;;;;;;;;;6186198;23;20267;-92
2021/11/03 05:38:00;;;;;;;13.97;6.80;;;;;;;;;;6185546;23;20207;-90
2021/11/03 05:41:05;;;;;;;13.83;6.63;;;;;;;;;;6183513;23;20163;-92
2021/11/03 05:44:12;;;;;;;15.30;7.00;;;;;;;;;;6183678;23;20276;-92
2021/11/03 05:47:21;;;;;;;13.70;7.37;;;;;;;;;;6184105;23;20183;-88
2021/11/03 05:50:32;;;;;;;12.73;6.90;;;;;;;;;;6185334;23;20191;-91
2021/11/03 05:53:40;;;;;;;11.13;6.80;;;;;;;;;;6186903;23;20199;-90
2021/11/03 05:56:46;;;;;;;14.97;6.87;;;;;;;;;;6184761;23;20192;-90
2021/11/03 06:00:28;;;;;;;13.73;7.27;;;;;;;;;;6185058;23;20152;-89
2021/11/03 06:03:34;;;;;;;14.47;7.20;;;;;;;;;;6185681;23;20275;-90
2021/11/03 06:06:39;;;;;;;14.67;7.27;;;;;;;;;;6185601;23;20213;-92
2021/11/03 06:09:46;;;;;;;16.73;7.67;;;;;;;;;;6186795;23;20168;-90
2021/11/03 06:12:52;;;;;;;15.00;7.40;;;;;;;;;;6185006;23;20196;-89
2021/11/03 06:16:23;;;;;;;15.27;7.93;;;;;;;;;;6186288;23;20163;-92
2021/11/03 06:19:29;;;;;;;17.10;7.93;;;;;;;;;;6186136;23;20224;-88
2021/11/03 06:22:34;;;;;;;15.77;8.00;;;;;;;;;;6186375;23;20176;-90
2021/11/03 06:25:41;;;;;;;18.33;8.20;;;;;;;;;;6184961;23;20486;-89
2021/11/03 06:28:47;;;;;;;18.53;7.93;;;;;;;;;;6181529;23;20219;-87
2021/11/03 06:31:53;;;;;;;19.30;7.67;;;;;;;;;;6184937;23;20163;-88
2021/11/03 06:34:58;;;;;;;21.30;8.63;;;;;;;;;;6185170;23;20199;-89
2021/11/03 06:38:03;;;;;;;17.07;7.60;;;;;;;;;;6184075;23;20175;-89
2021/11/03 06:41:11;;;;;;;25.87;9.17;;;;;;;;;;6185915;23;20225;-90
2021/11/03 06:44:17;;;;;;;24.87;10.43;;;;;;;;;;6184507;23;20619;-88
2021/11/03 06:47:23;;;;;;;34.77;10.20;;;;;;;;;;6185946;23;20207;-90
2021/11/03 06:50:30;;;;;;;37.53;10.10;;;;;;;;;;6186924;23;20223;-89
2021/11/03 06:53:40;;;;;;;42.03;10.07;;;;;;;;;;6184751;23;20168;-89
2021/11/03 06:56:47;;;;;;;22.83;9.63;;;;;;;;;;6184596;23;20203;-89
2021/11/03 07:00:03;;;;;;;24.23;8.93;;;;;;;;;;6185418;23;20225;-89
2021/11/03 07:03:09;;;;;;;21.07;7.53;;;;;;;;;;6186212;23;20160;-91
2021/11/03 07:06:14;;;;;;;20.43;7.87;;;;;;;;;;6186365;23;20255;-91
2021/11/03 07:09:20;;;;;;;36.13;8.17;;;;;;;;;;6187038;23;20243;-90
2021/11/03 07:12:27;;;;;;;25.27;7.93;;;;;;;;;;6184325;23;20604;-91
2021/11/03 07:15:36;;;;;;;19.13;8.93;;;;;;;;;;6186241;23;20322;-89
2021/11/03 07:18:41;;;;;;;21.20;8.30;;;;;;;;;;6186013;23;20219;-90
2021/11/03 07:21:47;;;;;;;29.50;8.80;;;;;;;;;;6188335;23;20243;-89
2021/11/03 07:24:54;;;;;;;22.40;8.90;;;;;;;;;;6186939;23;20196;-89
2021/11/03 07:28:02;;;;;;;23.77;8.47;;;;;;;;;;6186508;23;20256;-89
2021/11/03 07:31:08;;;;;;;17.73;8.27;;;;;;;;;;6187937;23;20235;-91
2021/11/03 07:34:14;;;;;;;24.40;7.40;;;;;;;;;;6188455;23;20211;-90
2021/11/03 07:37:29;;;;;;;25.20;7.90;;;;;;;;;;6189075;23;20180;-90
2021/11/03 07:40:36;;;;;;;15.40;7.87;;;;;;;;;;6188360;23;20239;-90
2021/11/03 07:43:47;;;;;;;22.10;7.90;;;;;;;;;;6188611;23;20211;-90
2021/11/03 07:46:56;;;;;;;15.63;7.57;;;;;;;;;;6187718;23;20217;-89
2021/11/03 07:50:08;;;;;;;21.47;7.60;;;;;;;;;;6187197;23;20167;-88
2021/11/03 07:53:14;;;;;;;14.57;7.50;;;;;;;;;;6188028;23;20171;-88
2021/11/03 07:56:22;;;;;;;15.77;7.67;;;;;;;;;;6187092;23;20171;-91
2021/11/03 07:59:32;;;;;;;18.97;7.80;;;;;;;;;;6190173;23;20152;-91
2021/11/03 08:02:40;;;;;;;26.23;7.17;;;;;;;;;;6191300;23;20187;-88
2021/11/03 10:38:41;;;;;;;8.77;4.80;;;;;;;;;;6115708;23;20196;-90
2021/11/03 10:45:21;;;;;;;9.18;5.00;;;;;;;;;;6156436;23;20502;-90
2021/11/03 10:48:27;;;;;;;11.80;5.30;;;;;;;;;;6158011;23;20184;-90
2021/11/03 10:51:38;;;;;;;10.10;4.68;;;;;;;;;;6157088;23;20216;-87
2021/11/03 10:54:46;;;;;;;8.85;4.80;;;;;;;;;;6159165;23;20201;-90
2021/11/03 12:14:24;;;;;;;13.18;4.78;;;;;;;;;;6156497;23;20197;-91
2021/11/03 12:21:36;;;;;;;6.22;3.13;;;;;;;;;;6188505;23;20167;-90
2021/11/03 12:24:44;;;;;;;7.63;3.72;;;;;;;;;;6172655;23;20172;-91
2021/11/03 12:27:51;;;;;;;8.68;3.67;;;;;;;;;;6189459;23;20240;-90
2021/11/03 12:31:09;;;;;;;10.45;3.40;;;;;;;;;;6189442;23;20159;-92
2021/11/03 12:34:22;;;;;;;13.02;3.65;;;;;;;;;;6189408;23;20163;-91
2021/11/03 12:37:32;;;;;;;8.35;3.75;;;;;;;;;;6188023;23;20208;-90
2021/11/03 12:40:45;;;;;;;8.63;3.83;;;;;;;;;;6188626;23;20211;-90
2021/11/03 12:44:26;;;;;;;11.48;3.72;;;;;;;;;;6189263;23;20714;-89
2021/11/03 12:47:34;;;;;;;8.75;3.47;;;;;;;;;;6186655;23;20176;-90
2021/11/03 12:50:46;;;;;;;5.32;2.65;;;;;;;;;;6187324;23;20184;-89
2021/11/03 12:53:55;;;;;;;7.38;3.15;;;;;;;;;;6186437;23;20176;-91
2021/11/03 12:57:02;;;;;;;4.60;2.55;;;;;;;;;;6187787;23;20622;-92
2021/11/03 13:00:09;;;;;;;4.32;2.53;;;;;;;;;;6187388;23;20271;-91
2021/11/03 13:06:45;;;;;;;4.93;2.63;;;;;;;;;;6186344;23;20168;-90
2021/11/03 13:09:59;;;;;;;4.95;2.80;;;;;;;;;;6186504;23;20272;-89
2021/11/03 13:13:07;;;;;;;5.75;2.33;;;;;;;;;;6186700;23;20172;-91
2021/11/03 13:16:22;;;;;;;5.72;2.88;;;;;;;;;;6186900;23;20262;-92
2021/11/03 13:19:30;;;;;;;7.60;2.53;;;;;;;;;;6188668;23;20212;-89
2021/11/03 13:22:37;;;;;;;6.13;3.10;;;;;;;;;;6188685;23;20155;-90
2021/11/03 13:25:58;;;;;;;5.38;2.85;;;;;;;;;;6187407;23;20172;-90
2021/11/03 13:29:26;;;;;;;11.10;4.30;;;;;;;;;;6187684;23;20664;-90
2021/11/03 13:32:33;;;;;;;4.22;2.20;;;;;;;;;;6185907;23;20164;-88
2021/11/03 13:35:40;;;;;;;6.28;2.13;;;;;;;;;;6183772;23;20207;-91
2021/11/03 13:42:27;;;;;;;4.78;2.80;;;;;;;;;;6184809;23;20168;-90
2021/11/03 13:45:36;;;;;;;7.15;3.20;;;;;;;;;;6182113;23;20172;-90
2021/11/03 13:49:07;;;;;;;6.70;2.70;;;;;;;;;;6186683;23;20203;-90
2021/11/03 13:52:23;;;;;;;6.50;2.60;;;;;;;;;;6187301;23;20155;-91
2021/11/03 13:55:31;;;;;;;6.25;2.65;;;;;;;;;;6186129;23;20208;-90
2021/11/03 13:58:40;;;;;;;5.55;3.05;;;;;;;;;;6186670;23;20164;-91
2021/11/03 14:01:53;;;;;;;5.57;2.90;;;;;;;;;;6189597;23;20195;-90
2021/11/03 14:05:00;;;;;;;5.75;3.00;;;;;;;;;;6188203;23;20248;-90
2021/11/03 14:08:07;;;;;;;4.75;2.75;;;;;;;;;;6187241;23;20232;-90
2021/11/03 14:11:16;;;;;;;4.68;2.55;;;;;;;;;;6189024;23;20192;-91
2021/11/03 14:14:24;;;;;;;5.00;2.50;;;;;;;;;;6189477;23;20267;-88
2021/11/03 14:17:38;;;;;;;8.30;2.97;;;;;;;;;;6189133;23;20313;-90
2021/11/03 14:20:49;;;;;;;6.05;2.90;;;;;;;;;;6188576;23;20168;-88
2021/11/03 14:23:55;;;;;;;6.07;3.22;;;;;;;;;;6187620;23;20223;-91
2021/11/03 14:27:00;;;;;;;7.60;3.47;;;;;;;;;;6186390;23;20172;-91
2021/11/03 14:30:06;;;;;;;5.68;3.40;;;;;;;;;;6185962;23;20171;-90
2021/11/03 14:33:20;;;;;;;23.42;9.20;;;;;;;;;;6187299;23;20238;-91
2021/11/03 14:36:27;;;;;;;24.15;8.05;;;;;;;;;;6184151;23;20195;-91
2021/11/03 14:39:42;;;;;;;15.07;4.55;;;;;;;;;;6183509;23;20155;-89
2021/11/03 14:42:52;;;;;;;8.70;3.45;;;;;;;;;;6182791;23;20667;-91
2021/11/03 14:45:59;;;;;;;6.75;3.22;;;;;;;;;;6183335;23;20215;-90
2021/11/03 14:49:31;;;;;;;5.28;2.33;;;;;;;;;;6182890;23;20599;-90
2021/11/03 14:55:59;;;;;;;13.05;4.93;;;;;;;;;;6183423;23;20199;-91
2021/11/03 14:59:32;;;;;;;9.00;3.83;;;;;;;;;;6203287;23;20167;-88
2021/11/03 15:02:40;;;;;;;12.50;4.05;;;;;;;;;;6185192;23;20230;-90
2021/11/03 15:05:48;;;;;;;11.65;4.28;;;;;;;;;;6184591;23;20175;-90
2021/11/03 15:08:53;;;;;;;8.15;4.07;;;;;;;;;;6184794;23;20195;-89
2021/11/03 15:12:02;;;;;;;9.18;4.20;;;;;;;;;;6185382;23;20216;-89
2021/11/03 15:15:09;;;;;;;19.23;6.00;;;;;;;;;;6185354;23;20187;-91
2021/11/03 15:18:18;;;;;;;10.00;4.47;;;;;;;;;;6182953;23;20236;-90
2021/11/03 15:21:40;;;;;;;11.52;4.22;;;;;;;;;;6184927;23;20180;-89
2021/11/03 15:24:51;;;;;;;13.05;3.83;;;;;;;;;;6184810;23;20183;-90
2021/11/03 15:27:57;;;;;;;10.77;3.75;;;;;;;;;;6183522;23;20176;-89
2021/11/03 15:31:18;;;;;;;10.50;4.50;;;;;;;;;;6184316;23;20187;-90
2021/11/03 15:34:30;;;;;;;14.43;5.22;;;;;;;;;;6183065;23;20251;-89
2021/11/03 15:37:40;;;;;;;10.05;4.22;;;;;;;;;;6184603;23;20175;-89
2021/11/03 15:40:48;;;;;;;11.65;4.97;;;;;;;;;;6186993;23;20255;-90
2021/11/03 15:43:54;;;;;;;13.65;5.63;;;;;;;;;;6186849;23;20168;-93
2021/11/03 15:51:18;;;;;;;14.40;5.38;;;;;;;;;;6205420;23;20168;-89
2021/11/03 15:54:34;;;;;;;12.00;5.68;;;;;;;;;;6184971;23;20191;-90
2021/11/03 15:57:42;;;;;;;11.20;5.97;;;;;;;;;;6185204;23;20160;-90
2021/11/03 16:00:51;;;;;;;16.08;6.70;;;;;;;;;;6183774;23;20192;-89
2021/11/03 16:03:58;;;;;;;18.00;7.13;;;;;;;;;;6185747;23;20155;-91
2021/11/03 16:07:03;;;;;;;13.73;7.60;;;;;;;;;;6185506;23;20179;-91
2021/11/03 16:10:11;;;;;;;11.63;5.50;;;;;;;;;;6186865;23;20171;-88
2021/11/03 16:13:18;;;;;;;21.15;6.15;;;;;;;;;;6186817;23;21024;-91
2021/11/03 16:16:31;;;;;;;14.02;5.68;;;;;;;;;;6184921;23;20195;-90
2021/11/03 16:19:37;;;;;;;16.88;6.22;;;;;;;;;;6186695;23;20172;-89
2021/11/03 16:22:45;;;;;;;13.65;5.97;;;;;;;;;;6188938;23;20164;-90
2021/11/03 16:25:50;;;;;;;12.93;5.25;;;;;;;;;;6188365;23;20213;-92
2021/11/03 20:13:10;;;;;;;10.93;5.28;;;;;;;;;;6145234;23;20253;-89
2021/11/03 20:16:28;;;;;;;9.10;4.88;;;;;;;;;;6188105;23;20513;-90
2021/11/03 20:19:36;;;;;;;13.75;6.63;;;;;;;;;;6186509;23;20244;-91
2021/11/03 20:25:41;;;;;;;13.13;6.03;;;;;;;;;;6167939;23;20204;-91
2021/11/03 20:28:52;;;;;;;10.02;5.45;;;;;;;;;;6208899;23;20497;-90
2021/11/03 20:32:01;;;;;;;15.40;7.15;;;;;;;;;;6189814;23;20180;-90
2021/11/03 20:35:09;;;;;;;12.98;6.13;;;;;;;;;;6189575;23;20220;-91
2021/11/03 20:38:24;;;;;;;13.83;6.53;;;;;;;;;;6189452;23;20159;-91
2021/11/03 20:41:37;;;;;;;14.77;7.53;;;;;;;;;;6189621;23;20167;-89
2021/11/03 20:44:44;;;;;;;16.35;7.00;;;;;;;;;;6189365;23;20172;-91
2021/11/03 20:47:52;;;;;;;15.02;6.90;;;;;;;;;;6190846;23;20159;-89
2021/11/03 20:51:01;;;;;;;20.90;9.50;;;;;;;;;;6190147;23;20195;-90
2021/11/03 20:54:12;;;;;;;18.50;7.82;;;;;;;;;;6190840;23;20152;-89
2021/11/03 20:57:24;;;;;;;13.68;6.25;;;;;;;;;;6191016;23;20263;-88
2021/11/03 21:00:31;;;;;;;14.02;6.85;;;;;;;;;;6173372;23;20180;-88
2021/11/03 21:03:40;;;;;;;15.02;7.28;;;;;;;;;;6189616;23;20265;-89
2021/11/03 21:06:48;;;;;;;14.38;6.68;;;;;;;;;;6189597;23;20225;-90
2021/11/03 21:09:54;;;;;;;12.77;6.75;;;;;;;;;;6189812;23;20176;-88
2021/11/03 21:54:15;;;;;;;16.55;9.45;;;;;;;;;;6168104;23;20224;-89
2021/11/03 21:57:23;;;;;;;15.00;9.00;;;;;;;;;;6183776;23;20176;-90
2021/11/03 22:00:29;;;;;;;17.48;9.55;;;;;;;;;;6183408;23;20168;-89
2021/11/03 22:03:38;;;;;;;17.58;10.52;;;;;;;;;;6183595;23;20194;-89
2021/11/03 22:06:47;;;;;;;18.13;9.93;;;;;;;;;;6184161;23;20211;-90
2021/11/03 22:09:58;;;;;;;17.00;9.50;;;;;;;;;;6183347;23;20163;-90
2021/11/03 22:13:04;;;;;;;17.27;10.40;;;;;;;;;;6183911;23;20171;-89
2021/11/03 22:16:13;;;;;;;20.55;10.50;;;;;;;;;;6183764;23;20621;-89
2021/11/03 22:19:19;;;;;;;20.40;10.45;;;;;;;;;;6185769;23;20168;-89
2021/11/03 22:22:26;;;;;;;26.05;11.98;;;;;;;;;;6183758;23;20212;-89
2021/11/03 22:25:33;;;;;;;21.33;11.32;;;;;;;;;;6182880;23;20168;-90
2021/11/03 22:28:38;;;;;;;26.63;12.23;;;;;;;;;;6183956;23;20188;-92
2021/11/03 22:31:45;;;;;;;26.45;12.93;;;;;;;;;;6182751;23;20155;-90
2021/11/03 22:34:50;;;;;;;21.83;11.43;;;;;;;;;;6185794;23;20152;-89
2021/11/03 22:37:57;;;;;;;20.55;11.15;;;;;;;;;;6184511;23;20706;-89
2021/11/03 22:41:05;;;;;;;20.98;11.05;;;;;;;;;;6184378;23;20168;-90
2021/11/03 22:44:21;;;;;;;22.38;11.65;;;;;;;;;;6183676;23;20156;-89
2021/11/03 22:47:30;;;;;;;21.63;11.80;;;;;;;;;;6182061;23;20216;-90
2021/11/03 22:50:35;;;;;;;24.75;11.98;;;;;;;;;;6182329;23;20180;-91
2021/11/03 22:53:41;;;;;;;21.25;11.95;;;;;;;;;;6181170;23;20191;-89
2021/11/03 22:56:47;;;;;;;22.25;11.38;;;;;;;;;;6181157;23;20300;-89
2021/11/03 22:59:52;;;;;;;20.33;10.98;;;;;;;;;;6183159;23;20216;-91
2021/11/03 23:03:02;;;;;;;24.38;12.38;;;;;;;;;;6181942;23;20171;-90
2021/11/03 23:06:08;;;;;;;22.85;11.63;;;;;;;;;;6181970;23;20334;-91
2021/11/03 23:09:15;;;;;;;23.90;11.95;;;;;;;;;;6183985;23;20168;-90
2021/11/03 23:12:22;;;;;;;23.73;11.18;;;;;;;;;;6184541;23;20540;-89
2021/11/03 23:15:29;;;;;;;21.73;11.25;;;;;;;;;;6182822;23;20176;-88
2021/11/03 23:18:35;;;;;;;22.63;11.05;;;;;;;;;;6183784;23;20498;-89
2021/11/03 23:21:40;;;;;;;24.20;12.25;;;;;;;;;;6182706;23;20160;-90
2021/11/03 23:24:46;;;;;;;22.60;11.27;;;;;;;;;;6182948;23;20147;-90
2021/11/03 23:27:53;;;;;;;26.45;12.95;;;;;;;;;;6184419;23;20228;-89
2021/11/03 23:30:58;;;;;;;24.95;12.65;;;;;;;;;;6183268;23;20164;-90
2021/11/03 23:34:04;;;;;;;25.77;13.05;;;;;;;;;;6183078;23;20164;-90
2021/11/03 23:37:10;;;;;;;28.08;12.85;;;;;;;;;;6166532;23;20195;-89
2021/11/03 23:40:20;;;;;;;25.63;13.18;;;;;;;;;;6182452;23;20594;-89
2021/11/03 23:43:27;;;;;;;28.02;13.38;;;;;;;;;;6182680;23;20204;-91
2021/11/03 23:46:32;;;;;;;25.67;13.23;;;;;;;;;;6184481;23;20211;-91
2021/11/03 23:49:38;;;;;;;25.38;12.85;;;;;;;;;;6182523;23;20193;-91
2021/11/03 23:52:43;;;;;;;26.60;12.18;;;;;;;;;;6183630;23;20196;-90
2021/11/03 23:55:49;;;;;;;26.92;13.25;;;;;;;;;;6183691;23;20199;-92
2021/11/03 23:58:56;;;;;;;29.17;13.80;;;;;;;;;;6183304;23;20172;-90
